Time;durP1;ratioP1;P1;durP2;ratioP2;P2;SDS_P1;SDS_P2;PMS_P1;PMS_P2;Temp;Humidity;BMP_temperature;BMP_pressure;BME280_temperature;BME280_humidity;BME280_pressure;Samples;Min_cycle;Max_cycle;Signal;HPM_P1;HPM_P2
2021/10/16 00:00:42;;;;;;;30.40;17.45;;;;;;;5.85;65.53;99813.95;1652100;85;21070;-77
2021/10/16 00:03:10;;;;;;;31.00;18.00;;;;;;;5.82;65.68;99813.94;1671537;85;21075;-76
2021/10/16 00:05:47;;;;;;;30.80;19.27;;;;;;;5.79;65.77;99809.58;1666391;84;21535;-77
2021/10/16 00:08:13;;;;;;;29.87;17.07;;;;;;;5.76;65.96;99813.70;1671423;85;21147;-76
2021/10/16 00:10:43;;;;;;;22.95;16.15;;;;;;;5.74;66.01;99811.80;1671348;85;21050;-76
2021/10/16 00:13:23;;;;;;;24.40;15.28;;;;;;;5.71;66.13;99810.42;1654060;85;21014;-76
2021/10/16 00:15:56;;;;;;;27.73;17.00;;;;;;;5.65;66.22;99812.92;1665112;84;20983;-76
2021/10/16 00:18:24;;;;;;;29.92;18.45;;;;;;;5.58;66.46;99809.13;1671572;85;21063;-75
2021/10/16 00:20:58;;;;;;;28.80;17.70;;;;;;;5.56;66.81;99809.95;1667862;84;21029;-76
2021/10/16 00:23:33;;;;;;;31.97;19.70;;;;;;;5.55;66.96;99800.12;1665665;85;21578;-76
2021/10/16 00:26:11;;;;;;;29.50;18.02;;;;;;;5.54;67.07;99795.77;1664579;85;20995;-77
2021/10/16 00:28:38;;;;;;;32.93;19.48;;;;;;;5.52;67.06;99793.02;1671769;84;20995;-76
2021/10/16 00:31:11;;;;;;;30.23;17.52;;;;;;;5.43;67.09;99785.94;1662504;84;21511;-74
2021/10/16 00:33:38;;;;;;;33.20;18.40;;;;;;;5.35;67.24;99788.17;1671761;85;21120;-75
2021/10/16 00:36:08;;;;;;;30.10;18.37;;;;;;;5.32;67.36;99785.17;1648320;85;21035;-76
2021/10/16 00:38:45;;;;;;;31.68;19.55;;;;;;;5.29;67.38;99776.97;1632030;85;21716;-75
2021/10/16 00:41:16;;;;;;;30.23;17.73;;;;;;;5.21;67.38;99783.01;1668597;85;20987;-74
2021/10/16 00:43:43;;;;;;;33.35;19.07;;;;;;;5.10;67.58;99776.20;1671428;85;21058;-75
2021/10/16 00:46:13;;;;;;;33.95;18.73;;;;;;;5.04;67.79;99772.39;1652146;85;21094;-74
2021/10/16 00:48:44;;;;;;;29.85;17.73;;;;;;;5.01;67.87;99770.22;1668504;85;21038;-74
2021/10/16 00:51:18;;;;;;;31.37;17.85;;;;;;;4.99;67.97;99770.50;1667588;85;21089;-74
2021/10/16 00:53:51;;;;;;;32.58;17.07;;;;;;;4.95;68.19;99772.96;1667589;85;21039;-75
2021/10/16 00:56:29;;;;;;;30.20;17.62;;;;;;;4.96;68.34;99761.50;1671415;85;21048;-74
2021/10/16 00:59:01;;;;;;;31.75;17.92;;;;;;;4.95;68.56;99758.48;1644291;84;21216;-76
2021/10/16 01:01:32;;;;;;;31.68;19.10;;;;;;;4.97;68.83;99759.03;1669807;85;21067;-75
2021/10/16 01:04:01;;;;;;;32.40;19.87;;;;;;;5.00;68.97;99761.20;1673451;85;21015;-75
2021/10/16 01:06:38;;;;;;;33.60;19.82;;;;;;;5.03;69.07;99764.77;1669541;85;21034;-75
2021/10/16 01:09:23;;;;;;;32.67;19.80;;;;;;;5.06;69.14;99760.11;1627013;85;21001;-74
2021/10/16 01:12:08;;;;;;;37.55;19.62;;;;;;;5.08;69.23;99766.09;1671891;84;21045;-75
2021/10/16 01:14:47;;;;;;;32.50;17.65;;;;;;;5.10;69.41;99760.38;1673616;85;21058;-75
2021/10/16 01:17:18;;;;;;;31.45;18.40;;;;;;;5.12;69.47;99766.36;1671221;84;21018;-76
2021/10/16 01:20:08;;;;;;;31.55;18.55;;;;;;;5.13;69.72;99765.28;1667968;84;21086;-77
2021/10/16 01:22:37;;;;;;;35.37;18.80;;;;;;;5.18;69.90;99766.64;1642391;85;21240;-75
2021/10/16 01:25:09;;;;;;;30.30;17.98;;;;;;;5.21;70.11;99755.15;1644777;85;21109;-76
2021/10/16 01:27:39;;;;;;;34.65;19.02;;;;;;;5.28;70.26;99756.76;1673233;85;21073;-76
2021/10/16 01:30:18;;;;;;;30.27;18.55;;;;;;;5.33;70.35;99758.94;1641276;85;21034;-75
2021/10/16 01:32:46;;;;;;;32.55;18.70;;;;;;;5.38;70.39;99751.26;1673671;85;21011;-75
2021/10/16 01:35:16;;;;;;;32.83;19.77;;;;;;;5.44;70.45;99756.96;1669208;84;21074;-75
2021/10/16 01:37:49;;;;;;;36.00;20.40;;;;;;;5.50;70.54;99754.20;1673808;85;21575;-75
2021/10/16 01:40:19;;;;;;;31.97;20.55;;;;;;;5.54;70.61;99756.13;1673799;84;21010;-75
2021/10/16 01:42:55;;;;;;;33.92;19.67;;;;;;;5.59;70.62;99753.37;1673574;85;21269;-74
2021/10/16 01:45:30;;;;;;;31.50;18.02;;;;;;;5.64;70.62;99751.69;1644113;85;21022;-76
2021/10/16 01:48:07;;;;;;;32.48;17.98;;;;;;;5.68;70.64;99749.47;1669915;85;21599;-76
2021/10/16 01:50:45;;;;;;;30.92;18.07;;;;;;;5.72;70.60;99740.98;1671102;85;21035;-76
2021/10/16 01:53:21;;;;;;;38.78;19.85;;;;;;;5.76;70.57;99741.24;1671029;85;21097;-74
2021/10/16 01:55:58;;;;;;;32.20;19.70;;;;;;;5.80;70.57;99736.03;1660091;85;21070;-75
2021/10/16 01:58:38;;;;;;;30.82;18.80;;;;;;;5.84;70.59;99733.81;1659012;85;21524;-75
2021/10/16 02:01:18;;;;;;;34.70;20.65;;;;;;;5.87;70.52;99724.78;1645290;87;21150;-76
2021/10/16 02:03:52;;;;;;;34.92;21.02;;;;;;;5.87;70.39;99722.05;1647398;86;21153;-75
2021/10/16 02:06:28;;;;;;;36.42;20.68;;;;;;;5.89;70.46;99725.28;1643658;87;21565;-74
2021/10/16 02:09:12;;;;;;;33.98;21.23;;;;;;;5.91;70.43;99727.20;1647128;86;21064;-74
2021/10/16 02:11:45;;;;;;;34.78;19.73;;;;;;;5.92;70.42;99731.58;1645874;85;21071;-76
2021/10/16 02:14:22;;;;;;;30.50;18.52;;;;;;;5.93;70.39;99730.47;1644013;85;21523;-75
2021/10/16 02:16:57;;;;;;;33.05;19.20;;;;;;;5.93;70.36;99725.83;1645031;85;21271;-74
2021/10/16 02:19:26;;;;;;;;;;;;;;;5.93;70.47;99721.73;1628992;87;21090;-74
2021/10/16 02:21:59;;;;;;;30.00;19.23;;;;;;;5.97;70.58;99732.92;1647384;87;20198;-75
2021/10/16 02:24:27;;;;;;;34.03;20.10;;;;;;;5.98;70.69;99730.44;1626663;87;21067;-75
2021/10/16 02:26:54;;;;;;;34.20;20.82;;;;;;;6.03;70.74;99725.47;1647042;87;21071;-74
2021/10/16 02:29:23;;;;;;;36.77;22.32;;;;;;;6.05;70.74;99717.30;1626442;87;21096;-76
2021/10/16 02:32:15;;;;;;;36.23;21.40;;;;;;;6.09;70.76;99718.88;1643395;87;21029;-75
2021/10/16 02:35:04;;;;;;;34.18;21.87;;;;;;;6.12;70.69;99721.62;1626632;87;21068;-75
2021/10/16 02:37:43;;;;;;;45.45;21.95;;;;;;;6.16;70.59;99718.59;1623998;87;21107;-75
2021/10/16 02:40:13;;;;;;;34.83;19.48;;;;;;;6.20;70.50;99717.73;1643113;87;21039;-75
2021/10/16 02:42:41;;;;;;;33.05;20.25;;;;;;;6.24;70.44;99727.55;1626735;87;21036;-76
2021/10/16 02:45:14;;;;;;;32.50;19.80;;;;;;;6.27;70.39;99728.34;1647091;87;21087;-76
2021/10/16 02:47:43;;;;;;;43.10;22.50;;;;;;;6.31;70.30;99722.55;1625777;87;21048;-75
2021/10/16 02:50:20;;;;;;;36.80;20.70;;;;;;;6.34;70.27;99728.02;1639398;85;20992;-75
2021/10/16 02:52:57;;;;;;;33.73;21.70;;;;;;;6.37;70.18;99715.66;1640295;87;21055;-76
2021/10/16 02:55:27;;;;;;;42.95;23.07;;;;;;;6.40;70.11;99727.41;1626728;87;21196;-77
2021/10/16 02:58:01;;;;;;;41.55;22.87;;;;;;;6.40;70.06;99719.19;1620274;87;21060;-76
2021/10/16 03:00:30;;;;;;;33.88;21.05;;;;;;;6.40;70.04;99717.28;1657091;86;21039;-76
2021/10/16 03:02:58;;;;;;;33.90;21.55;;;;;;;6.41;70.01;99706.61;1657191;85;21111;-74
2021/10/16 03:05:27;;;;;;;38.10;21.57;;;;;;;6.43;69.97;99710.43;1635941;86;21095;-76
2021/10/16 03:07:55;;;;;;;38.40;20.95;;;;;;;6.45;70.00;99706.83;1632445;86;21053;-76
2021/10/16 03:10:31;;;;;;;35.52;21.05;;;;;;;6.45;69.98;99709.56;1636341;86;21004;-75
2021/10/16 03:13:06;;;;;;;35.10;20.97;;;;;;;6.49;69.96;99705.70;1654215;86;21067;-75
2021/10/16 03:15:35;;;;;;;32.83;19.95;;;;;;;6.51;69.95;99702.95;1653828;86;21012;-77
2021/10/16 03:18:08;;;;;;;39.50;21.93;;;;;;;6.54;69.93;99703.75;1656955;86;21051;-76
2021/10/16 03:20:42;;;;;;;37.80;22.75;;;;;;;6.57;69.85;99705.91;1653977;86;21127;-77
2021/10/16 03:23:15;;;;;;;35.25;21.60;;;;;;;6.60;69.79;99705.06;1648083;85;21118;-74
2021/10/16 03:25:51;;;;;;;36.45;21.87;;;;;;;6.63;69.65;99709.42;1636668;86;21015;-75
2021/10/16 03:28:21;;;;;;;35.48;22.10;;;;;;;6.64;69.52;99708.30;1652740;86;21570;-76
2021/10/16 03:30:52;;;;;;;43.48;22.37;;;;;;;6.64;69.49;99708.30;1649865;86;21099;-74
2021/10/16 03:33:22;;;;;;;34.08;19.77;;;;;;;6.63;69.48;99704.48;1636203;86;21194;-77
2021/10/16 03:35:49;;;;;;;33.35;20.30;;;;;;;6.63;69.46;99703.12;1657102;85;21070;-75
2021/10/16 03:38:17;;;;;;;33.55;19.98;;;;;;;6.64;69.45;99697.89;1657081;86;21107;-75
2021/10/16 03:40:45;;;;;;;34.43;20.88;;;;;;;6.65;69.45;99694.86;1614058;86;21059;-76
2021/10/16 03:43:19;;;;;;;32.20;19.82;;;;;;;6.69;69.43;99699.21;1627951;86;21000;-75
2021/10/16 03:45:47;;;;;;;37.75;22.13;;;;;;;6.71;69.41;99703.85;1657400;84;21201;-75
2021/10/16 03:48:19;;;;;;;34.27;20.90;;;;;;;6.75;69.37;99701.36;1623275;86;21035;-75
2021/10/16 03:50:46;;;;;;;34.55;20.97;;;;;;;6.78;69.37;99700.77;1662999;84;22081;-73
2021/10/16 03:53:18;;;;;;;38.95;21.77;;;;;;;6.81;69.33;99701.55;1653132;86;21015;-74
2021/10/16 03:55:49;;;;;;;40.03;21.80;;;;;;;6.84;69.27;99707.02;1657032;86;21024;-74
2021/10/16 03:58:29;;;;;;;33.23;21.87;;;;;;;6.84;69.22;99703.70;1650223;85;21071;-75
2021/10/16 04:01:08;;;;;;;34.13;20.70;;;;;;;6.87;69.23;99707.80;1644727;87;21083;-76
2021/10/16 04:03:39;;;;;;;33.20;20.85;;;;;;;6.87;69.28;99708.62;1640876;84;21051;-75
2021/10/16 04:06:14;;;;;;;34.13;19.82;;;;;;;6.86;69.33;99708.34;1615645;87;21489;-76
2021/10/16 04:08:45;;;;;;;32.80;19.02;;;;;;;6.86;69.35;99701.50;1616949;88;21499;-76
2021/10/16 04:11:22;;;;;;;35.98;20.10;;;;;;;6.89;69.42;99698.17;1612033;88;21040;-76
2021/10/16 04:13:59;;;;;;;39.55;20.88;;;;;;;6.92;69.40;99705.02;1611186;88;21071;-76
2021/10/16 04:16:29;;;;;;;34.63;22.30;;;;;;;6.92;69.40;99705.84;1611548;88;21127;-75
2021/10/16 04:18:58;;;;;;;39.23;21.02;;;;;;;6.94;69.36;99711.02;1587253;88;21142;-74
2021/10/16 04:21:48;;;;;;;34.50;21.35;;;;;;;6.96;69.32;99707.98;1625269;86;21560;-75
2021/10/16 04:24:29;;;;;;;35.83;21.15;;;;;;;6.98;69.26;99715.38;1643824;87;21051;-76
2021/10/16 04:27:13;;;;;;;36.48;20.72;;;;;;;6.99;69.27;99714.25;1622047;85;21020;-74
2021/10/16 04:29:52;;;;;;;35.35;20.52;;;;;;;6.97;69.25;99709.06;1644034;87;21126;-75
2021/10/16 04:32:25;;;;;;;34.92;21.23;;;;;;;6.97;69.34;99701.39;1644967;86;21505;-76
2021/10/16 04:34:56;;;;;;;29.65;19.52;;;;;;;6.95;69.35;99704.42;1647264;87;21098;-75
2021/10/16 04:37:36;;;;;;;30.72;18.00;;;;;;;6.94;69.39;99706.34;1647256;86;21115;-78
2021/10/16 04:40:12;;;;;;;33.80;19.55;;;;;;;6.96;69.45;99699.77;1647134;86;21016;-75
2021/10/16 04:42:39;;;;;;;34.23;20.27;;;;;;;6.97;69.50;99702.77;1623511;87;21075;-75
2021/10/16 04:45:09;;;;;;;34.40;20.90;;;;;;;6.99;69.50;99702.75;1647000;87;21873;-74
2021/10/16 04:47:46;;;;;;;38.57;21.07;;;;;;;7.01;69.53;99705.98;1647361;85;21606;-75
2021/10/16 04:50:23;;;;;;;32.45;19.55;;;;;;;7.02;69.75;99698.59;1615332;87;21097;-75
2021/10/16 04:52:50;;;;;;;35.10;20.17;;;;;;;7.04;70.06;99704.61;1646949;85;21138;-76
2021/10/16 04:55:21;;;;;;;33.33;20.25;;;;;;;7.04;70.29;99705.44;1645134;87;21045;-75
2021/10/16 04:57:59;;;;;;;29.48;19.77;;;;;;;7.05;70.52;99701.57;1644883;84;21095;-75
2021/10/16 05:00:31;;;;;;;40.63;20.23;;;;;;;7.06;70.85;99707.30;1663345;84;21102;-75
2021/10/16 05:03:00;;;;;;;27.73;17.57;;;;;;;7.08;71.36;99704.84;1670642;85;21584;-73
2021/10/16 05:05:31;;;;;;;36.33;19.48;;;;;;;7.08;71.74;99697.42;1671492;85;21063;-76
2021/10/16 05:08:07;;;;;;;33.15;19.42;;;;;;;7.10;72.14;99698.49;1668035;85;27185;-73
2021/10/16 05:10:35;;;;;;;33.60;19.32;;;;;;;7.13;72.35;99702.05;1667172;85;21491;-77
2021/10/16 05:13:02;;;;;;;32.05;20.17;;;;;;;7.15;72.46;99703.91;1671741;85;21026;-76
2021/10/16 05:15:29;;;;;;;31.82;19.95;;;;;;;7.18;72.75;99701.98;1671569;85;21048;-76
2021/10/16 05:18:03;;;;;;;34.70;20.50;;;;;;;7.20;72.87;99697.00;1667487;85;21058;-76
2021/10/16 05:20:49;;;;;;;32.25;20.00;;;;;;;7.21;72.98;99695.09;1668184;85;21527;-76
2021/10/16 05:26:01;;;;;;;33.53;18.82;;;;;;;7.24;72.95;99687.09;1665949;84;21046;-76
2021/10/16 05:28:42;;;;;;;35.60;18.57;;;;;;;7.27;72.94;99687.05;1665193;85;21030;-74
2021/10/16 05:31:13;;;;;;;30.02;19.60;;;;;;;7.30;72.99;99683.17;1651322;85;21597;-75
2021/10/16 05:33:43;;;;;;;31.30;20.00;;;;;;;7.34;73.12;99685.32;1673604;84;21093;-76
2021/10/16 05:36:12;;;;;;;37.93;21.25;;;;;;;7.36;73.16;99694.90;1671635;85;21082;-75
2021/10/16 05:38:41;;;;;;;38.02;23.00;;;;;;;7.38;73.22;99693.23;1671320;85;21500;-74
2021/10/16 05:41:19;;;;;;;35.85;22.77;;;;;;;7.40;73.19;99691.81;1671261;85;21487;-76
2021/10/16 05:43:47;;;;;;;38.15;21.30;;;;;;;7.46;73.28;99689.00;1651762;84;21062;-75
2021/10/16 05:46:17;;;;;;;30.32;19.20;;;;;;;7.49;73.22;99696.66;1666741;85;20991;-76
2021/10/16 05:48:44;;;;;;;32.17;20.23;;;;;;;7.49;73.28;99688.44;1652199;85;21050;-76
2021/10/16 05:51:12;;;;;;;29.98;19.30;;;;;;;7.53;73.31;99693.03;1652165;85;21083;-75
2021/10/16 05:53:39;;;;;;;30.75;19.32;;;;;;;7.60;73.28;99704.17;1650471;84;21137;-76
2021/10/16 05:56:15;;;;;;;33.75;19.98;;;;;;;7.64;73.28;99703.28;1671571;85;21070;-76
2021/10/16 05:58:44;;;;;;;35.00;21.23;;;;;;;7.69;73.31;99707.91;1652941;85;21011;-74
2021/10/16 06:01:14;;;;;;;35.93;21.93;;;;;;;7.73;73.25;99704.81;1671480;85;21058;-77
2021/10/16 06:03:44;;;;;;;37.98;21.02;;;;;;;7.77;73.05;99699.55;1671450;83;21016;-76
2021/10/16 06:06:10;;;;;;;29.48;18.40;;;;;;;7.79;73.08;99691.30;1651656;85;21141;-76
2021/10/16 06:08:38;;;;;;;34.65;18.30;;;;;;;7.82;73.09;99693.16;1663392;85;21063;-75
2021/10/16 06:11:11;;;;;;;33.10;18.95;;;;;;;7.85;73.00;99693.94;1671429;85;21098;-75
2021/10/16 06:13:43;;;;;;;27.93;17.50;;;;;;;7.88;72.90;99695.53;1648397;85;21044;-76
2021/10/16 06:16:11;;;;;;;31.33;20.08;;;;;;;7.91;72.83;99698.26;1671647;84;21071;-76
2021/10/16 06:18:41;;;;;;;47.62;22.82;;;;;;;7.93;72.74;99700.16;1634702;86;21124;-75
2021/10/16 06:21:16;;;;;;;29.75;20.48;;;;;;;7.96;72.60;99695.98;1639436;86;21023;-76
2021/10/16 06:23:48;;;;;;;38.15;22.37;;;;;;;7.99;72.49;99700.88;1660955;86;21081;-76
2021/10/16 06:26:21;;;;;;;35.38;21.75;;;;;;;8.00;72.36;99697.03;1653012;84;21079;-74
2021/10/16 06:28:51;;;;;;;41.35;21.85;;;;;;;8.02;72.36;99707.12;1617410;86;21086;-77
2021/10/16 06:31:17;;;;;;;34.05;20.27;;;;;;;8.03;72.16;99701.92;1666761;85;21301;-74
2021/10/16 06:33:45;;;;;;;30.75;20.72;;;;;;;8.04;72.23;99705.73;1671434;85;21007;-76
2021/10/16 06:36:26;;;;;;;30.10;19.35;;;;;;;8.04;72.18;99707.11;1668805;84;21027;-76
2021/10/16 06:38:58;;;;;;;36.98;21.12;;;;;;;8.09;72.17;99714.98;1666216;85;21078;-73
2021/10/16 06:41:28;;;;;;;39.73;22.60;;;;;;;8.10;72.03;99711.14;1671554;85;21101;-76
2021/10/16 06:44:14;;;;;;;43.30;22.62;;;;;;;8.12;71.98;99708.92;1669657;84;21182;-75
2021/10/16 06:46:43;;;;;;;36.93;22.37;;;;;;;8.13;72.02;99711.91;1669481;85;21027;-76
2021/10/16 06:49:14;;;;;;;33.75;21.27;;;;;;;8.16;72.08;99713.51;1652571;85;21742;-76
2021/10/16 06:51:45;;;;;;;38.05;22.48;;;;;;;8.18;72.12;99706.89;1651237;85;21526;-77
2021/10/16 06:54:17;;;;;;;35.00;21.75;;;;;;;8.19;72.01;99712.66;1671639;85;21086;-77
2021/10/16 06:56:45;;;;;;;33.63;20.80;;;;;;;8.19;72.10;99710.70;1647634;85;21581;-75
2021/10/16 06:59:13;;;;;;;35.08;19.48;;;;;;;8.20;72.11;99708.23;1652632;85;21015;-77
2021/10/16 07:01:52;;;;;;;39.67;24.15;;;;;;;8.22;72.21;99703.23;1615203;88;21074;-77
2021/10/16 07:04:24;;;;;;;38.78;23.50;;;;;;;8.27;72.20;99706.48;1608552;88;21038;-77
2021/10/16 07:07:12;;;;;;;39.15;23.98;;;;;;;8.30;72.18;99713.28;1598094;88;21130;-76
2021/10/16 07:09:42;;;;;;;43.50;25.97;;;;;;;8.32;72.18;99717.92;1614725;87;21246;-75
2021/10/16 07:12:12;;;;;;;41.75;23.42;;;;;;;8.32;72.14;99713.27;1618679;85;21054;-75
2021/10/16 07:14:39;;;;;;;42.53;23.80;;;;;;;8.32;72.17;99713.27;1606534;88;21068;-76
2021/10/16 07:17:08;;;;;;;37.73;22.15;;;;;;;8.33;72.16;99705.27;1559244;90;21712;-76
2021/10/16 07:19:50;;;;;;;35.25;21.50;;;;;;;8.36;72.24;99699.75;1576995;90;21138;-77
2021/10/16 07:22:30;;;;;;;41.50;23.62;;;;;;;8.40;72.27;99698.02;1580109;90;21318;-76
2021/10/16 07:25:06;;;;;;;40.50;24.00;;;;;;;8.44;72.20;99694.94;1574005;90;21031;-76
2021/10/16 07:27:33;;;;;;;39.60;24.20;;;;;;;8.49;72.10;99695.41;1580226;90;21178;-76
2021/10/16 07:30:03;;;;;;;36.90;20.35;;;;;;;8.52;72.00;99695.62;1559353;90;21102;-76
2021/10/16 07:32:32;;;;;;;37.42;23.10;;;;;;;8.56;71.92;99701.91;1580129;90;21091;-76
2021/10/16 07:35:04;;;;;;;34.25;21.12;;;;;;;8.61;71.75;99699.89;1576740;90;21383;-75
2021/10/16 07:37:33;;;;;;;33.83;21.33;;;;;;;8.67;71.69;99703.89;1579945;90;21106;-77
2021/10/16 07:40:01;;;;;;;31.87;20.70;;;;;;;8.72;71.64;99704.63;1577243;90;21051;-76
2021/10/16 07:42:32;;;;;;;37.90;23.02;;;;;;;8.79;71.48;99707.52;1580240;90;21025;-76
2021/10/16 07:45:01;;;;;;;37.90;22.98;;;;;;;8.84;71.26;99710.17;1569659;90;21638;-76
2021/10/16 07:47:43;;;;;;;37.85;23.90;;;;;;;8.89;71.15;99715.02;1557676;90;21207;-77
2021/10/16 07:50:15;;;;;;;40.50;24.25;;;;;;;8.94;70.96;99714.11;1583611;90;21126;-77
2021/10/16 07:52:46;;;;;;;34.55;22.05;;;;;;;8.96;70.82;99710.50;1556232;90;21652;-75
2021/10/16 07:55:28;;;;;;;35.90;20.45;;;;;;;8.96;70.81;99709.67;1575747;89;21158;-77
2021/10/16 07:58:04;;;;;;;34.10;20.23;;;;;;;8.99;70.96;99703.59;1580116;90;21111;-77
2021/10/16 08:00:36;;;;;;;33.23;20.72;;;;;;;9.01;71.00;99710.41;1590434;87;21174;-76
2021/10/16 08:03:08;;;;;;;36.73;22.65;;;;;;;9.06;70.91;99705.94;1608612;89;21529;-76
2021/10/16 08:05:40;;;;;;;38.20;22.60;;;;;;;9.08;70.95;99707.25;1590029;89;21097;-76
2021/10/16 08:11:32;;;;;;;40.38;24.23;;;;;;;9.09;70.98;99713.57;1605457;89;21105;-77
2021/10/16 08:14:09;;;;;;;36.53;22.30;;;;;;;9.09;70.94;99718.48;1610052;87;21060;-76
2021/10/16 08:16:48;;;;;;;34.05;21.68;;;;;;;9.10;70.93;99717.94;1601063;88;21047;-75
2021/10/16 08:19:17;;;;;;;32.45;18.92;;;;;;;9.10;71.03;99706.39;1588856;89;21642;-77
2021/10/16 08:21:45;;;;;;;35.00;21.45;;;;;;;9.11;71.09;99701.71;1608499;89;21055;-75
2021/10/16 08:24:29;;;;;;;35.48;21.57;;;;;;;9.13;70.98;99696.70;1649070;86;21111;-77
2021/10/16 08:26:59;;;;;;;39.33;23.02;;;;;;;9.15;71.12;99697.22;1651800;85;20996;-75
2021/10/16 08:29:28;;;;;;;31.35;21.90;;;;;;;9.20;71.16;99694.36;1651669;86;21563;-77
2021/10/16 08:31:58;;;;;;;39.65;24.70;;;;;;;9.23;70.97;99704.74;1651761;86;21062;-76
2021/10/16 08:34:26;;;;;;;39.13;24.65;;;;;;;9.24;70.79;99700.89;1612013;86;21091;-75
2021/10/16 08:36:59;;;;;;;41.08;24.67;;;;;;;9.24;70.72;99694.02;1651680;86;21599;-76
2021/10/16 08:39:33;;;;;;;34.55;22.67;;;;;;;9.27;70.84;99701.38;1626905;86;21067;-77
2021/10/16 08:42:20;;;;;;;40.90;24.35;;;;;;;9.27;70.71;99704.13;1649071;86;21043;-75
2021/10/16 08:45:01;;;;;;;40.90;22.40;;;;;;;9.28;70.72;99702.44;1648174;86;21554;-76
2021/10/16 08:50:17;;;;;;;39.88;25.50;;;;;;;9.39;70.81;99690.68;1648715;85;21086;-76
2021/10/16 08:52:52;;;;;;;42.08;24.27;;;;;;;9.59;71.12;99687.22;1649130;86;21842;-75
2021/10/16 08:55:25;;;;;;;39.92;24.63;;;;;;;9.85;70.95;99688.84;1651386;85;21028;-76
2021/10/16 08:58:00;;;;;;;38.85;23.70;;;;;;;10.11;70.31;99681.91;1651628;86;21023;-77
2021/10/16 09:00:52;;;;;;;39.75;24.47;;;;;;;10.34;69.98;99685.45;1651441;85;21572;-77
2021/10/16 09:03:35;;;;;;;35.55;23.50;;;;;;;10.47;69.03;99692.62;1649047;87;21535;-74
2021/10/16 09:06:25;;;;;;;38.38;23.77;;;;;;;10.56;68.26;99698.19;1645231;87;21149;-75
2021/10/16 09:09:03;;;;;;;39.45;23.60;;;;;;;10.58;67.43;99691.77;1647027;86;21599;-74
2021/10/16 09:11:38;;;;;;;37.58;22.70;;;;;;;10.54;66.74;99702.60;1647206;87;21011;-77
2021/10/16 09:14:12;;;;;;;37.58;22.58;;;;;;;10.58;66.51;99697.28;1646014;87;21134;-74
2021/10/16 09:16:52;;;;;;;42.67;24.35;;;;;;;10.68;66.79;99697.02;1649745;87;21055;-74
2021/10/16 09:19:22;;;;;;;36.30;22.27;;;;;;;10.86;66.41;99700.42;1630604;86;21024;-75
2021/10/16 09:22:01;;;;;;;35.88;23.32;;;;;;;11.03;65.98;99701.88;1631686;87;21028;-74
2021/10/16 09:24:40;;;;;;;37.20;23.85;;;;;;;11.17;65.15;99694.84;1644901;87;21134;-77
2021/10/16 09:27:20;;;;;;;37.33;22.20;;;;;;;11.30;64.25;99696.43;1638522;86;21066;-73
2021/10/16 09:29:53;;;;;;;31.20;20.65;;;;;;;11.40;64.28;99698.89;1646507;87;21060;-75
2021/10/16 09:32:28;;;;;;;32.23;19.62;;;;;;;11.53;63.47;99699.09;1648157;86;21152;-73
2021/10/16 09:35:12;;;;;;;30.00;18.82;;;;;;;11.67;62.75;99697.54;1649552;87;21099;-74
2021/10/16 09:37:53;;;;;;;28.10;19.17;;;;;;;11.85;62.33;99689.28;1651663;86;21107;-74
2021/10/16 09:40:38;;;;;;;30.02;19.05;;;;;;;12.04;62.27;99698.63;1649615;87;21110;-76
2021/10/16 09:43:25;;;;;;;28.80;18.42;;;;;;;12.14;60.48;99701.09;1625731;86;21004;-75
2021/10/16 09:46:11;;;;;;;27.93;18.87;;;;;;;12.13;60.25;99687.61;1652023;84;21063;-76
2021/10/16 09:48:47;;;;;;;25.32;16.60;;;;;;;12.09;59.53;99680.55;1648672;85;21496;-76
2021/10/16 09:51:25;;;;;;;26.07;17.00;;;;;;;12.03;59.50;99675.71;1649618;87;21544;-76
2021/10/16 09:54:15;;;;;;;29.25;17.10;;;;;;;12.04;59.41;99681.47;1640144;86;21052;-75
2021/10/16 09:56:50;;;;;;;28.00;17.25;;;;;;;12.10;59.47;99675.81;1644973;87;21059;-76
2021/10/16 09:59:33;;;;;;;28.65;17.27;;;;;;;12.20;59.53;99673.30;1648659;86;21032;-76
2021/10/16 10:02:07;;;;;;;22.60;15.40;;;;;;;12.29;59.00;99675.46;1648981;85;21015;-76
2021/10/16 10:04:45;;;;;;;28.55;15.58;;;;;;;12.36;58.79;99681.87;1649747;87;21056;-75
2021/10/16 10:07:17;;;;;;;21.82;15.83;;;;;;;12.44;58.45;99684.36;1646995;87;21059;-76
2021/10/16 10:09:46;;;;;;;29.63;17.42;;;;;;;12.51;57.80;99682.73;1645832;87;21019;-76
2021/10/16 10:12:19;;;;;;;29.42;16.65;;;;;;;12.61;57.36;99679.36;1644467;87;20992;-73
2021/10/16 10:14:54;;;;;;;23.83;14.68;;;;;;;12.72;57.36;99677.05;1635969;86;21019;-74
2021/10/16 10:17:33;;;;;;;19.77;13.48;;;;;;;12.84;56.64;99668.89;1641123;87;22003;-75
2021/10/16 10:20:14;;;;;;;18.67;12.28;;;;;;;12.92;56.47;99665.01;1643115;87;21481;-76
2021/10/16 10:22:48;;;;;;;19.48;12.60;;;;;;;12.98;55.82;99662.31;1642942;86;21095;-76
2021/10/16 10:25:28;;;;;;;22.58;13.32;;;;;;;13.02;55.22;99670.17;1649264;85;21797;-76
2021/10/16 10:28:01;;;;;;;20.08;12.23;;;;;;;13.03;54.65;99660.75;1648438;87;21088;-76
2021/10/16 10:30:45;;;;;;;18.57;12.63;;;;;;;13.09;54.91;99653.88;1648952;85;21051;-76
2021/10/16 10:33:29;;;;;;;23.15;15.32;;;;;;;13.24;54.82;99644.18;1646660;87;21111;-74
2021/10/16 10:36:11;;;;;;;20.02;13.43;;;;;;;13.38;54.58;99650.85;1648471;86;21055;-74
2021/10/16 10:38:48;;;;;;;21.45;13.32;;;;;;;13.49;54.31;99642.16;1642004;87;21508;-74
2021/10/16 10:41:35;;;;;;;20.02;14.07;;;;;;;13.58;53.91;99637.97;1649388;86;21064;-76
2021/10/16 10:44:05;;;;;;;23.50;15.18;;;;;;;13.65;53.58;99640.98;1629591;87;21141;-74
2021/10/16 10:46:35;;;;;;;22.22;13.43;;;;;;;13.71;53.05;99634.68;1623519;87;21098;-74
2021/10/16 10:49:08;;;;;;;22.77;14.73;;;;;;;13.73;52.89;99639.31;1608993;87;21035;-76
2021/10/16 10:51:39;;;;;;;22.48;14.85;;;;;;;13.73;52.73;99637.33;1649569;87;21489;-76
2021/10/16 10:54:17;;;;;;;25.85;15.65;;;;;;;13.79;53.10;99637.95;1645631;87;21438;-76
2021/10/16 10:56:49;;;;;;;29.07;14.80;;;;;;;13.87;53.08;99631.52;1645318;87;21066;-75
2021/10/16 10:59:29;;;;;;;26.57;15.08;;;;;;;13.93;52.79;99632.69;1649388;87;21043;-75
2021/10/16 11:02:03;;;;;;;25.55;15.43;;;;;;;13.98;52.92;99631.92;1650787;86;21008;-74
2021/10/16 11:04:52;;;;;;;23.40;15.23;;;;;;;14.05;52.97;99627.20;1636950;86;21033;-76
2021/10/16 11:07:47;;;;;;;21.15;14.50;;;;;;;14.11;52.90;99629.17;1646486;87;21016;-74
2021/10/16 11:10:33;;;;;;;28.12;15.28;;;;;;;14.19;52.61;99623.33;1641999;85;21048;-76
2021/10/16 11:13:22;;;;;;;23.32;15.70;;;;;;;14.25;52.50;99624.72;1632665;87;21062;-75
2021/10/16 11:16:03;;;;;;;25.85;16.17;;;;;;;14.29;52.33;99624.27;1648299;86;21023;-77
2021/10/16 11:18:42;;;;;;;27.10;16.17;;;;;;;14.36;52.41;99620.34;1614263;88;21149;-75
2021/10/16 11:21:13;;;;;;;29.48;16.45;;;;;;;14.43;51.96;99607.30;1614493;88;21055;-76
2021/10/16 11:23:52;;;;;;;25.40;17.07;;;;;;;14.48;51.74;99611.84;1608427;88;21063;-74
2021/10/16 11:26:29;;;;;;;28.75;15.50;;;;;;;14.55;51.94;99612.66;1609130;88;21123;-75
2021/10/16 11:28:57;;;;;;;26.65;16.23;;;;;;;14.63;51.97;99609.53;1613269;88;21122;-76
2021/10/16 11:31:26;;;;;;;25.17;15.80;;;;;;;14.73;51.85;99611.84;1611113;88;21044;-76
2021/10/16 11:33:56;;;;;;;23.15;15.13;;;;;;;14.79;51.42;99607.67;1614689;88;21013;-76
2021/10/16 11:36:26;;;;;;;25.97;14.80;;;;;;;14.84;51.54;99610.84;1611625;88;21106;-76
2021/10/16 11:38:56;;;;;;;26.65;16.20;;;;;;;14.91;51.30;99609.67;1614732;88;21125;-73
2021/10/16 11:41:22;;;;;;;27.65;16.62;;;;;;;14.93;50.90;99605.98;1592045;88;21146;-76
2021/10/16 11:43:54;;;;;;;25.17;15.98;;;;;;;14.92;50.88;99602.16;1614796;88;22047;-76
2021/10/16 11:46:30;;;;;;;24.77;15.40;;;;;;;14.97;50.79;99597.77;1610219;88;21059;-74
2021/10/16 11:49:01;;;;;;;26.20;15.20;;;;;;;15.00;50.78;99601.80;1614699;88;21193;-74
2021/10/16 11:51:38;;;;;;;23.73;14.98;;;;;;;15.07;50.49;99595.91;1614400;88;21092;-75
2021/10/16 11:54:23;;;;;;;24.65;14.25;;;;;;;15.10;50.12;99597.16;1586212;88;21126;-75
2021/10/16 11:57:02;;;;;;;21.97;14.40;;;;;;;15.21;49.84;99597.51;1610613;87;21150;-75
2021/10/16 11:59:36;;;;;;;22.37;15.70;;;;;;;15.21;49.84;99597.51;1584163;88;21051;-74
2021/10/16 12:02:04;;;;;;;25.30;14.83;;;;;;;15.22;49.84;99590.79;1609251;87;21544;-75
2021/10/16 12:04:32;;;;;;;23.85;14.45;;;;;;;15.23;49.49;99592.99;1606048;89;21067;-75